sensor_id;sensor_type;location;lat;lon;timestamp;pressure;altitude;pressure_sealevel;temperature;humidity
58245;BME280;44550;43.864;25.986;2023-05-12T00:00:45;101690.06;;;8.89;99.05
58245;BME280;44550;43.864;25.986;2023-05-12T00:04:52;101702.38;;;8.65;100.00
58245;BME280;44550;43.864;25.986;2023-05-12T00:08:52;101692.53;;;8.56;100.00
58245;BME280;44550;43.864;25.986;2023-05-12T00:12:55;101697.84;;;8.59;100.00
58245;BME280;44550;43.864;25.986;2023-05-12T00:17:06;101699.50;;;8.56;100.00
58245;BME280;44550;43.864;25.986;2023-05-12T00:21:07;101703.63;;;8.49;100.00
58245;BME280;44550;43.864;25.986;2023-05-12T00:25:08;101707.34;;;8.57;100.00
58245;BME280;44550;43.864;25.986;2023-05-12T00:29:14;101705.28;;;8.47;100.00
58245;BME280;44550;43.864;25.986;2023-05-12T00:33:22;101705.38;;;8.50;100.00
58245;BME280;44550;43.864;25.986;2023-05-12T00:37:24;101700.94;;;8.46;100.00
58245;BME280;44550;43.864;25.986;2023-05-12T00:41:27;101700.59;;;8.37;100.00
58245;BME280;44550;43.864;25.986;2023-05-12T00:45:30;101698.50;;;8.25;100.00
58245;BME280;44550;43.864;25.986;2023-05-12T00:49:42;101699.00;;;8.13;100.00
58245;BME280;44550;43.864;25.986;2023-05-12T00:53:44;101711.47;;;7.96;100.00
58245;BME280;44550;43.864;25.986;2023-05-12T00:57:50;101705.28;;;7.93;100.00
58245;BME280;44550;43.864;25.986;2023-05-12T01:01:54;101713.31;;;7.73;100.00
58245;BME280;44550;43.864;25.986;2023-05-12T01:06:08;101712.06;;;7.62;100.00
58245;BME280;44550;43.864;25.986;2023-05-12T01:10:18;101717.81;;;7.53;100.00
58245;BME280;44550;43.864;25.986;2023-05-12T01:14:41;101716.84;;;7.50;100.00
58245;BME280;44550;43.864;25.986;2023-05-12T01:18:50;101708.56;;;7.36;100.00
58245;BME280;44550;43.864;25.986;2023-05-12T01:23:03;101713.97;;;7.42;100.00
58245;BME280;44550;43.864;25.986;2023-05-12T01:27:17;101714.59;;;7.35;100.00
58245;BME280;44550;43.864;25.986;2023-05-12T01:31:27;101710.06;;;7.29;100.00
58245;BME280;44550;43.864;25.986;2023-05-12T01:35:39;101709.94;;;7.26;100.00
58245;BME280;44550;43.864;25.986;2023-05-12T01:39:45;101702.34;;;7.33;100.00
58245;BME280;44550;43.864;25.986;2023-05-12T01:44:00;101709.44;;;7.37;100.00
58245;BME280;44550;43.864;25.986;2023-05-12T01:48:14;101705.19;;;7.39;100.00
58245;BME280;44550;43.864;25.986;2023-05-12T01:52:21;101708.16;;;7.49;100.00
58245;BME280;44550;43.864;25.986;2023-05-12T01:56:54;101697.47;;;7.42;100.00
58245;BME280;44550;43.864;25.986;2023-05-12T02:01:04;101698.38;;;7.42;100.00
58245;BME280;44550;43.864;25.986;2023-05-12T02:05:08;101696.31;;;7.34;100.00
58245;BME280;44550;43.864;25.986;2023-05-12T02:09:12;101693.06;;;7.39;100.00
58245;BME280;44550;43.864;25.986;2023-05-12T02:13:12;101691.53;;;7.46;100.00
58245;BME280;44550;43.864;25.986;2023-05-12T02:17:21;101689.72;;;7.43;100.00
58245;BME280;44550;43.864;25.986;2023-05-12T02:21:26;101697.16;;;7.33;100.00
58245;BME280;44550;43.864;25.986;2023-05-12T02:25:30;101697.03;;;7.29;100.00
58245;BME280;44550;43.864;25.986;2023-05-12T02:29:37;101698.53;;;7.23;100.00
58245;BME280;44550;43.864;25.986;2023-05-12T02:33:40;101702.03;;;7.23;100.00
58245;BME280;44550;43.864;25.986;2023-05-12T02:37:44;101697.09;;;7.31;100.00
58245;BME280;44550;43.864;25.986;2023-05-12T02:41:45;101695.97;;;7.48;100.00
58245;BME280;44550;43.864;25.986;2023-05-12T02:45:45;101698.97;;;7.35;100.00
58245;BME280;44550;43.864;25.986;2023-05-12T02:49:49;101697.91;;;7.30;100.00
58245;BME280;44550;43.864;25.986;2023-05-12T02:53:53;101693.44;;;7.26;100.00
58245;BME280;44550;43.864;25.986;2023-05-12T02:57:52;101711.81;;;7.30;100.00
58245;BME280;44550;43.864;25.986;2023-05-12T03:01:54;101717.25;;;7.13;100.00
58245;BME280;44550;43.864;25.986;2023-05-12T03:05:56;101716.53;;;7.17;100.00
58245;BME280;44550;43.864;25.986;2023-05-12T03:09:57;101715.38;;;7.09;100.00
58245;BME280;44550;43.864;25.986;2023-05-12T03:14:00;101717.13;;;7.10;100.00
58245;BME280;44550;43.864;25.986;2023-05-12T03:18:01;101722.38;;;7.11;100.00
58245;BME280;44550;43.864;25.986;2023-05-12T03:22:06;101721.47;;;7.09;100.00
58245;BME280;44550;43.864;25.986;2023-05-12T03:26:06;101728.06;;;7.25;100.00
58245;BME280;44550;43.864;25.986;2023-05-12T03:30:07;101735.41;;;7.35;100.00
58245;BME280;44550;43.864;25.986;2023-05-12T03:34:09;101728.78;;;7.45;100.00
58245;BME280;44550;43.864;25.986;2023-05-12T03:38:12;101736.81;;;7.51;100.00
58245;BME280;44550;43.864;25.986;2023-05-12T03:42:12;101740.28;;;7.51;100.00
58245;BME280;44550;43.864;25.986;2023-05-12T03:46:13;101738.25;;;7.67;100.00
58245;BME280;44550;43.864;25.986;2023-05-12T03:50:14;101737.09;;;7.59;100.00
58245;BME280;44550;43.864;25.986;2023-05-12T03:54:20;101740.19;;;7.72;100.00
58245;BME280;44550;43.864;25.986;2023-05-12T03:58:23;101745.59;;;7.79;100.00
58245;BME280;44550;43.864;25.986;2023-05-12T04:02:24;101745.31;;;7.71;100.00
58245;BME280;44550;43.864;25.986;2023-05-12T04:06:26;101753.34;;;7.77;100.00
58245;BME280;44550;43.864;25.986;2023-05-12T04:10:30;101748.66;;;7.92;100.00
58245;BME280;44550;43.864;25.986;2023-05-12T04:14:33;101759.03;;;7.91;100.00
58245;BME280;44550;43.864;25.986;2023-05-12T04:18:40;101756.59;;;7.95;100.00
58245;BME280;44550;43.864;25.986;2023-05-12T04:22:41;101762.44;;;7.88;100.00
58245;BME280;44550;43.864;25.986;2023-05-12T04:26:46;101757.41;;;7.94;100.00
58245;BME280;44550;43.864;25.986;2023-05-12T04:30:45;101767.78;;;8.18;100.00
58245;BME280;44550;43.864;25.986;2023-05-12T04:34:47;101761.19;;;8.30;100.00
58245;BME280;44550;43.864;25.986;2023-05-12T04:38:47;101768.13;;;8.29;100.00
58245;BME280;44550;43.864;25.986;2023-05-12T04:42:50;101770.19;;;8.38;100.00
58245;BME280;44550;43.864;25.986;2023-05-12T04:46:55;101769.66;;;8.50;100.00
58245;BME280;44550;43.864;25.986;2023-05-12T04:51:01;101778.97;;;8.68;100.00
58245;BME280;44550;43.864;25.986;2023-05-12T04:55:04;101783.03;;;8.87;100.00
58245;BME280;44550;43.864;25.986;2023-05-12T04:59:09;101788.69;;;9.03;100.00
58245;BME280;44550;43.864;25.986;2023-05-12T05:03:16;101782.34;;;9.23;100.00
58245;BME280;44550;43.864;25.986;2023-05-12T05:07:20;101790.06;;;9.20;100.00
58245;BME280;44550;43.864;25.986;2023-05-12T05:11:23;101788.28;;;9.17;100.00
58245;BME280;44550;43.864;25.986;2023-05-12T05:15:26;101800.00;;;9.32;100.00
58245;BME280;44550;43.864;25.986;2023-05-12T05:19:28;101800.66;;;9.55;100.00
58245;BME280;44550;43.864;25.986;2023-05-12T05:23:49;101802.13;;;9.77;100.00
58245;BME280;44550;43.864;25.986;2023-05-12T05:27:51;101798.16;;;9.91;100.00
58245;BME280;44550;43.864;25.986;2023-05-12T05:31:56;101798.16;;;9.91;100.00
58245;BME280;44550;43.864;25.986;2023-05-12T05:35:58;101804.06;;;9.84;100.00
58245;BME280;44550;43.864;25.986;2023-05-12T05:40:05;101803.66;;;10.02;100.00
58245;BME280;44550;43.864;25.986;2023-05-12T05:44:11;101806.38;;;10.06;100.00
58245;BME280;44550;43.864;25.986;2023-05-12T05:48:17;101809.38;;;10.20;100.00
58245;BME280;44550;43.864;25.986;2023-05-12T05:52:19;101807.84;;;10.27;100.00
58245;BME280;44550;43.864;25.986;2023-05-12T05:56:21;101811.59;;;10.38;100.00
58245;BME280;44550;43.864;25.986;2023-05-12T06:00:23;101813.41;;;10.78;100.00
58245;BME280;44550;43.864;25.986;2023-05-12T06:04:30;101809.50;;;10.99;100.00
58245;BME280;44550;43.864;25.986;2023-05-12T06:08:33;101815.22;;;11.20;100.00
58245;BME280;44550;43.864;25.986;2023-05-12T06:12:35;101820.91;;;11.42;100.00
58245;BME280;44550;43.864;25.986;2023-05-12T06:16:40;101814.78;;;11.41;100.00
58245;BME280;44550;43.864;25.986;2023-05-12T06:20:43;101812.38;;;11.50;100.00
58245;BME280;44550;43.864;25.986;2023-05-12T06:24:44;101810.06;;;11.67;100.00
58245;BME280;44550;43.864;25.986;2023-05-12T06:28:54;101805.84;;;11.74;100.00
58245;BME280;44550;43.864;25.986;2023-05-12T06:33:16;101807.97;;;11.93;100.00
58245;BME280;44550;43.864;25.986;2023-05-12T06:37:39;101812.66;;;12.11;100.00
58245;BME280;44550;43.864;25.986;2023-05-12T06:41:43;101808.34;;;12.15;100.00
58245;BME280;44550;43.864;25.986;2023-05-12T06:45:50;101807.22;;;12.51;100.00
58245;BME280;44550;43.864;25.986;2023-05-12T06:50:00;101806.53;;;12.64;100.00
58245;BME280;44550;43.864;25.986;2023-05-12T06:54:07;101808.91;;;13.05;97.96
58245;BME280;44550;43.864;25.986;2023-05-12T06:58:19;101813.47;;;13.18;95.15
58245;BME280;44550;43.864;25.986;2023-05-12T07:02:27;101812.63;;;13.22;93.49
58245;BME280;44550;43.864;25.986;2023-05-12T07:06:36;101809.22;;;13.26;93.52
58245;BME280;44550;43.864;25.986;2023-05-12T07:10:39;101819.06;;;13.41;92.72
58245;BME280;44550;43.864;25.986;2023-05-12T07:14:43;101813.88;;;13.50;91.44
58245;BME280;44550;43.864;25.986;2023-05-12T07:18:45;101809.75;;;13.72;88.11
58245;BME280;44550;43.864;25.986;2023-05-12T07:23:00;101821.88;;;13.58;88.54
58245;BME280;44550;43.864;25.986;2023-05-12T07:27:10;101810.63;;;13.73;88.99
58245;BME280;44550;43.864;25.986;2023-05-12T07:31:15;101811.47;;;13.69;88.40
58245;BME280;44550;43.864;25.986;2023-05-12T07:35:17;101814.16;;;13.72;88.07
58245;BME280;44550;43.864;25.986;2023-05-12T07:39:21;101817.91;;;13.97;81.43
58245;BME280;44550;43.864;25.986;2023-05-12T07:43:33;101818.81;;;13.97;81.32
58245;BME280;44550;43.864;25.986;2023-05-12T07:47:45;101804.13;;;14.22;82.71
58245;BME280;44550;43.864;25.986;2023-05-12T07:51:53;101818.00;;;14.04;83.75
58245;BME280;44550;43.864;25.986;2023-05-12T07:55:54;101817.19;;;14.13;82.86
58245;BME280;44550;43.864;25.986;2023-05-12T07:59:56;101813.84;;;14.32;79.91
58245;BME280;44550;43.864;25.986;2023-05-12T08:04:08;101813.97;;;14.46;77.56
58245;BME280;44550;43.864;25.986;2023-05-12T08:08:09;101807.81;;;14.44;74.46
58245;BME280;44550;43.864;25.986;2023-05-12T08:12:13;101817.72;;;14.71;68.91
58245;BME280;44550;43.864;25.986;2023-05-12T08:16:16;101814.25;;;14.82;68.39
58245;BME280;44550;43.864;25.986;2023-05-12T08:20:17;101805.47;;;14.78;65.98
58245;BME280;44550;43.864;25.986;2023-05-12T08:24:19;101814.34;;;14.91;65.31
58245;BME280;44550;43.864;25.986;2023-05-12T08:28:20;101816.28;;;15.27;63.52
58245;BME280;44550;43.864;25.986;2023-05-12T08:32:22;101811.88;;;15.20;62.87
58245;BME280;44550;43.864;25.986;2023-05-12T08:36:23;101817.16;;;15.27;61.85
58245;BME280;44550;43.864;25.986;2023-05-12T08:40:24;101803.09;;;15.28;60.57
58245;BME280;44550;43.864;25.986;2023-05-12T08:44:27;101812.78;;;15.33;60.73
58245;BME280;44550;43.864;25.986;2023-05-12T08:48:30;101819.78;;;15.29;61.58
58245;BME280;44550;43.864;25.986;2023-05-12T08:52:33;101806.69;;;15.40;61.31
58245;BME280;44550;43.864;25.986;2023-05-12T08:56:37;101800.59;;;15.62;60.99
58245;BME280;44550;43.864;25.986;2023-05-12T09:00:48;101807.72;;;15.98;59.43
58245;BME280;44550;43.864;25.986;2023-05-12T09:05:15;101805.16;;;16.26;59.51
58245;BME280;44550;43.864;25.986;2023-05-12T09:09:34;101794.56;;;16.40;58.55
58245;BME280;44550;43.864;25.986;2023-05-12T09:13:44;101803.38;;;16.76;57.80
58245;BME280;44550;43.864;25.986;2023-05-12T09:17:50;101798.06;;;16.82;56.54
58245;BME280;44550;43.864;25.986;2023-05-12T09:21:54;101790.16;;;16.25;58.31
58245;BME280;44550;43.864;25.986;2023-05-12T09:26:15;101784.88;;;16.42;57.83
58245;BME280;44550;43.864;25.986;2023-05-12T09:30:28;101794.59;;;16.26;58.24
58245;BME280;44550;43.864;25.986;2023-05-12T09:34:56;101784.91;;;16.43;58.70
58245;BME280;44550;43.864;25.986;2023-05-12T09:39:11;101786.63;;;16.38;59.42
58245;BME280;44550;43.864;25.986;2023-05-12T09:43:21;101793.69;;;16.33;58.50
58245;BME280;44550;43.864;25.986;2023-05-12T09:47:21;101787.53;;;16.13;59.58
58245;BME280;44550;43.864;25.986;2023-05-12T09:51:33;101788.41;;;16.10;59.24
58245;BME280;44550;43.864;25.986;2023-05-12T09:55:48;101784.88;;;16.11;59.77
58245;BME280;44550;43.864;25.986;2023-05-12T09:59:59;101798.94;;;16.04;58.29
58245;BME280;44550;43.864;25.986;2023-05-12T10:04:25;101799.84;;;16.00;58.64
58245;BME280;44550;43.864;25.986;2023-05-12T10:08:33;101799.81;;;15.92;58.82
58245;BME280;44550;43.864;25.986;2023-05-12T10:12:41;101792.78;;;15.93;60.29
58245;BME280;44550;43.864;25.986;2023-05-12T10:16:43;101795.44;;;16.07;58.05
58245;BME280;44550;43.864;25.986;2023-05-12T10:20:45;101794.56;;;16.03;58.47
58245;BME280;44550;43.864;25.986;2023-05-12T10:24:54;101792.78;;;16.22;57.64
58245;BME280;44550;43.864;25.986;2023-05-12T10:29:00;101786.66;;;16.37;57.09
58245;BME280;44550;43.864;25.986;2023-05-12T10:33:20;101776.94;;;16.62;53.85
58245;BME280;44550;43.864;25.986;2023-05-12T10:37:44;101785.75;;;16.79;53.43
58245;BME280;44550;43.864;25.986;2023-05-12T10:41:58;101786.63;;;16.84;51.62
58245;BME280;44550;43.864;25.986;2023-05-12T10:46:14;101782.22;;;16.70;51.55
58245;BME280;44550;43.864;25.986;2023-05-12T10:50:24;101776.94;;;16.57;53.71
58245;BME280;44550;43.864;25.986;2023-05-12T10:54:25;101776.06;;;16.75;51.83
58245;BME280;44550;43.864;25.986;2023-05-12T10:58:31;101766.41;;;16.53;50.30
58245;BME280;44550;43.864;25.986;2023-05-12T11:02:50;101785.75;;;16.55;50.09
58245;BME280;44550;43.864;25.986;2023-05-12T11:07:29;101779.56;;;16.71;50.17
58245;BME280;44550;43.864;25.986;2023-05-12T11:11:53;101776.97;;;16.56;49.63
58245;BME280;44550;43.864;25.986;2023-05-12T11:15:59;101775.19;;;16.52;49.35
58245;BME280;44550;43.864;25.986;2023-05-12T11:20:09;101774.34;;;16.37;49.71
58245;BME280;44550;43.864;25.986;2023-05-12T11:24:14;101773.44;;;16.38;49.23
58245;BME280;44550;43.864;25.986;2023-05-12T11:28:27;101766.41;;;16.25;50.61
58245;BME280;44550;43.864;25.986;2023-05-12T11:32:39;101768.19;;;16.29;51.12
58245;BME280;44550;43.864;25.986;2023-05-12T11:36:59;101760.22;;;16.57;49.88
58245;BME280;44550;43.864;25.986;2023-05-12T11:41:02;101762.88;;;16.80;50.77
58245;BME280;44550;43.864;25.986;2023-05-12T11:45:24;101768.09;;;17.00;46.96
58245;BME280;44550;43.864;25.986;2023-05-12T11:49:29;101760.16;;;17.01;46.62
58245;BME280;44550;43.864;25.986;2023-05-12T11:53:38;101759.28;;;17.02;47.79
58245;BME280;44550;43.864;25.986;2023-05-12T11:57:41;101763.63;;;17.14;45.21
58245;BME280;44550;43.864;25.986;2023-05-12T12:01:43;101760.97;;;17.14;45.41
58245;BME280;44550;43.864;25.986;2023-05-12T12:05:56;101760.16;;;16.97;45.37
58245;BME280;44550;43.864;25.986;2023-05-12T12:10:08;101752.22;;;17.09;46.67
58245;BME280;44550;43.864;25.986;2023-05-12T12:14:15;101746.00;;;17.19;44.64
58245;BME280;44550;43.864;25.986;2023-05-12T12:18:17;101732.72;;;17.33;44.41
58245;BME280;44550;43.864;25.986;2023-05-12T12:22:21;101741.50;;;17.36;43.88
58245;BME280;44550;43.864;25.986;2023-05-12T12:26:26;101743.22;;;17.45;43.95
58245;BME280;44550;43.864;25.986;2023-05-12T12:30:32;101732.69;;;17.36;44.75
58245;BME280;44550;43.864;25.986;2023-05-12T12:34:34;101732.69;;;17.36;43.71
58245;BME280;44550;43.864;25.986;2023-05-12T12:38:54;101734.44;;;17.37;44.98
58245;BME280;44550;43.864;25.986;2023-05-12T12:42:58;101731.81;;;17.35;44.29
58245;BME280;44550;43.864;25.986;2023-05-12T12:46:59;101729.19;;;17.31;45.42
58245;BME280;44550;43.864;25.986;2023-05-12T12:51:01;101722.06;;;17.44;45.16
58245;BME280;44550;43.864;25.986;2023-05-12T12:55:02;101726.47;;;17.43;45.39
58245;BME280;44550;43.864;25.986;2023-05-12T12:59:10;101717.47;;;17.76;43.84
58245;BME280;44550;43.864;25.986;2023-05-12T13:03:17;101709.59;;;17.66;43.35
58245;BME280;44550;43.864;25.986;2023-05-12T13:07:17;101711.47;;;17.50;45.56
58245;BME280;44550;43.864;25.986;2023-05-12T13:11:18;101699.19;;;17.40;46.15
58245;BME280;44550;43.864;25.986;2023-05-12T13:15:22;101704.38;;;17.56;47.02
58245;BME280;44550;43.864;25.986;2023-05-12T13:19:24;101706.22;;;17.37;46.77
58245;BME280;44550;43.864;25.986;2023-05-12T13:23:26;101691.94;;;17.68;45.55
58245;BME280;44550;43.864;25.986;2023-05-12T13:27:34;101689.72;;;18.25;46.57
58245;BME280;44550;43.864;25.986;2023-05-12T13:31:46;101696.41;;;18.61;44.05
58245;BME280;44550;43.864;25.986;2023-05-12T13:35:48;101685.19;;;18.36;43.93
58245;BME280;44550;43.864;25.986;2023-05-12T13:39:49;101675.72;;;18.15;45.13
58245;BME280;44550;43.864;25.986;2023-05-12T13:43:52;101684.56;;;18.10;46.34
58245;BME280;44550;43.864;25.986;2023-05-12T13:47:55;101681.69;;;18.33;45.14
58245;BME280;44550;43.864;25.986;2023-05-12T13:51:57;101693.34;;;18.13;45.47
58245;BME280;44550;43.864;25.986;2023-05-12T13:56:07;101684.31;;;18.34;46.10
58245;BME280;44550;43.864;25.986;2023-05-12T14:00:10;101690.72;;;18.13;45.01
58245;BME280;44550;43.864;25.986;2023-05-12T14:04:31;101680.00;;;18.24;46.58
58245;BME280;44550;43.864;25.986;2023-05-12T14:08:31;101698.63;;;18.16;46.22
58245;BME280;44550;43.864;25.986;2023-05-12T14:12:46;101687.22;;;18.10;45.00
58245;BME280;44550;43.864;25.986;2023-05-12T14:16:58;101696.13;;;17.98;44.58
58245;BME280;44550;43.864;25.986;2023-05-12T14:21:04;101685.72;;;17.75;45.51
58245;BME280;44550;43.864;25.986;2023-05-12T14:25:07;101691.03;;;17.72;45.15
58245;BME280;44550;43.864;25.986;2023-05-12T14:29:12;101685.53;;;18.02;45.73
58245;BME280;44550;43.864;25.986;2023-05-12T14:33:12;101690.03;;;17.90;44.53
58245;BME280;44550;43.864;25.986;2023-05-12T14:37:16;101687.41;;;17.90;44.56
58245;BME280;44550;43.864;25.986;2023-05-12T14:41:17;101691.75;;;17.94;44.14
58245;BME280;44550;43.864;25.986;2023-05-12T14:45:18;101695.34;;;17.90;43.92
58245;BME280;44550;43.864;25.986;2023-05-12T14:49:23;101694.41;;;17.94;43.84
58245;BME280;44550;43.864;25.986;2023-05-12T14:53:31;101685.59;;;17.93;43.77
58245;BME280;44550;43.864;25.986;2023-05-12T14:57:32;101682.97;;;17.90;42.75
58245;BME280;44550;43.864;25.986;2023-05-12T15:01:34;101686.44;;;18.01;42.78
58245;BME280;44550;43.864;25.986;2023-05-12T15:05:41;101682.19;;;17.76;42.72
58245;BME280;44550;43.864;25.986;2023-05-12T15:10:05;101678.69;;;17.71;42.97
58245;BME280;44550;43.864;25.986;2023-05-12T15:14:06;101681.28;;;17.80;43.42
58245;BME280;44550;43.864;25.986;2023-05-12T15:18:17;101682.16;;;17.83;43.02
58245;BME280;44550;43.864;25.986;2023-05-12T15:22:48;101683.06;;;17.79;42.75
58245;BME280;44550;43.864;25.986;2023-05-12T15:26:59;101680.44;;;17.75;42.62
58245;BME280;44550;43.864;25.986;2023-05-12T15:31:17;101683.81;;;17.98;42.01
58245;BME280;44550;43.864;25.986;2023-05-12T15:35:17;101677.72;;;17.89;43.03
58245;BME280;44550;43.864;25.986;2023-05-12T15:39:22;101681.13;;;18.00;42.98
58245;BME280;44550;43.864;25.986;2023-05-12T15:43:28;101672.34;;;17.96;42.37
58245;BME280;44550;43.864;25.986;2023-05-12T15:47:36;101677.69;;;17.90;42.22
58245;BME280;44550;43.864;25.986;2023-05-12T15:51:42;101676.06;;;17.69;42.72
58245;BME280;44550;43.864;25.986;2023-05-12T15:55:54;101668.22;;;17.58;42.83
58245;BME280;44550;43.864;25.986;2023-05-12T16:00:23;101667.44;;;17.38;42.46
58245;BME280;44550;43.864;25.986;2023-05-12T16:04:28;101668.28;;;17.46;42.85
58245;BME280;44550;43.864;25.986;2023-05-12T16:08:30;101664.78;;;17.43;43.06
58245;BME280;44550;43.864;25.986;2023-05-12T16:12:32;101673.66;;;17.35;43.34
58245;BME280;44550;43.864;25.986;2023-05-12T16:16:35;101676.41;;;17.16;43.70
58245;BME280;44550;43.864;25.986;2023-05-12T16:20:39;101674.66;;;17.14;44.64
58245;BME280;44550;43.864;25.986;2023-05-12T16:24:40;101680.88;;;17.03;44.43
58245;BME280;44550;43.864;25.986;2023-05-12T16:28:46;101679.94;;;17.19;44.39
58245;BME280;44550;43.864;25.986;2023-05-12T16:32:51;101686.16;;;17.09;44.44
58245;BME280;44550;43.864;25.986;2023-05-12T16:36:53;101686.13;;;17.07;44.14
58245;BME280;44550;43.864;25.986;2023-05-12T16:40:54;101685.28;;;17.01;44.53
58245;BME280;44550;43.864;25.986;2023-05-12T16:44:58;101687.94;;;16.98;45.07
58245;BME280;44550;43.864;25.986;2023-05-12T16:49:08;101687.97;;;16.90;45.62
58245;BME280;44550;43.864;25.986;2023-05-12T16:53:12;101690.66;;;16.82;45.63
58245;BME280;44550;43.864;25.986;2023-05-12T16:57:15;101695.94;;;16.70;46.62
58245;BME280;44550;43.864;25.986;2023-05-12T17:01:23;101694.19;;;16.64;45.72
58245;BME280;44550;43.864;25.986;2023-05-12T17:05:29;101692.44;;;16.65;46.21
58245;BME280;44550;43.864;25.986;2023-05-12T17:09:29;101691.56;;;16.61;45.60
58245;BME280;44550;43.864;25.986;2023-05-12T17:13:36;101690.72;;;16.49;46.36
58245;BME280;44550;43.864;25.986;2023-05-12T17:17:37;101697.75;;;16.45;46.41
58245;BME280;44550;43.864;25.986;2023-05-12T17:21:39;101692.50;;;16.34;46.68
58245;BME280;44550;43.864;25.986;2023-05-12T17:25:39;101697.78;;;16.31;46.97
58245;BME280;44550;43.864;25.986;2023-05-12T17:29:40;101700.44;;;16.33;46.19
58245;BME280;44550;43.864;25.986;2023-05-12T17:33:40;101693.44;;;16.23;45.80
58245;BME280;44550;43.864;25.986;2023-05-12T17:37:58;101700.47;;;16.04;46.19
58245;BME280;44550;43.864;25.986;2023-05-12T17:42:08;101696.94;;;16.00;45.83
58245;BME280;44550;43.864;25.986;2023-05-12T17:46:08;101693.44;;;15.93;45.95
58245;BME280;44550;43.864;25.986;2023-05-12T17:50:09;101698.72;;;15.96;45.57
58245;BME280;44550;43.864;25.986;2023-05-12T17:54:14;101701.34;;;15.93;45.14
58245;BME280;44550;43.864;25.986;2023-05-12T17:58:18;101701.34;;;15.87;45.47
58245;BME280;44550;43.864;25.986;2023-05-12T18:02:22;101715.41;;;15.80;45.77
58245;BME280;44550;43.864;25.986;2023-05-12T18:06:22;101718.03;;;15.76;46.14
58245;BME280;44550;43.864;25.986;2023-05-12T18:10:31;101711.88;;;15.70;46.37
58245;BME280;44550;43.864;25.986;2023-05-12T18:14:38;101720.63;;;15.62;46.94
58245;BME280;44550;43.864;25.986;2023-05-12T18:18:39;101721.47;;;15.62;47.15
58245;BME280;44550;43.864;25.986;2023-05-12T18:22:39;101723.22;;;15.56;47.64
58245;BME280;44550;43.864;25.986;2023-05-12T18:26:43;101724.13;;;15.58;48.04
58245;BME280;44550;43.864;25.986;2023-05-12T18:30:44;101723.25;;;15.60;47.84
58245;BME280;44550;43.864;25.986;2023-05-12T18:34:44;101723.25;;;15.57;47.98
58245;BME280;44550;43.864;25.986;2023-05-12T18:38:44;101721.47;;;15.51;47.76
58245;BME280;44550;43.864;25.986;2023-05-12T18:42:47;101727.63;;;15.40;48.06
58245;BME280;44550;43.864;25.986;2023-05-12T18:46:46;101724.09;;;15.42;47.83
58245;BME280;44550;43.864;25.986;2023-05-12T18:50:47;101729.34;;;15.33;47.84
58245;BME280;44550;43.864;25.986;2023-05-12T18:54:47;101739.88;;;15.36;47.65
58245;BME280;44550;43.864;25.986;2023-05-12T18:58:50;101739.88;;;15.35;48.09
58245;BME280;44550;43.864;25.986;2023-05-12T19:03:06;101742.50;;;15.39;48.57
58245;BME280;44550;43.864;25.986;2023-05-12T19:07:33;101745.16;;;15.35;48.98
58245;BME280;44550;43.864;25.986;2023-05-12T19:11:44;101753.97;;;15.40;49.02
58245;BME280;44550;43.864;25.986;2023-05-12T19:15:57;101754.84;;;15.42;48.80
58245;BME280;44550;43.864;25.986;2023-05-12T19:20:00;101748.69;;;15.41;48.30
58245;BME280;44550;43.864;25.986;2023-05-12T19:24:00;101760.00;;;15.11;48.42
58245;BME280;44550;43.864;25.986;2023-05-12T19:28:00;101772.13;;;14.78;50.49
58245;BME280;44550;43.864;25.986;2023-05-12T19:32:06;101767.78;;;14.88;51.34
58245;BME280;44550;43.864;25.986;2023-05-12T19:36:07;101771.34;;;14.93;51.57
58245;BME280;44550;43.864;25.986;2023-05-12T19:40:08;101766.91;;;14.92;52.35
58245;BME280;44550;43.864;25.986;2023-05-12T19:44:08;101760.69;;;14.79;52.95
58245;BME280;44550;43.864;25.986;2023-05-12T19:52:47;101768.69;;;14.96;53.67
58245;BME280;44550;43.864;25.986;2023-05-12T19:56:54;101761.59;;;14.78;54.58
58245;BME280;44550;43.864;25.986;2023-05-12T20:00:55;101756.19;;;14.60;55.39
58245;BME280;44550;43.864;25.986;2023-05-12T20:05:00;101758.00;;;14.69;55.59
58245;BME280;44550;43.864;25.986;2023-05-12T20:09:16;101750.13;;;14.67;55.70
58245;BME280;44550;43.864;25.986;2023-05-12T20:13:19;101753.56;;;14.59;55.79
58245;BME280;44550;43.864;25.986;2023-05-12T20:17:21;101749.16;;;14.56;55.81
58245;BME280;44550;43.864;25.986;2023-05-12T20:21:24;101753.53;;;14.54;55.37
58245;BME280;44550;43.864;25.986;2023-05-12T20:25:27;101753.41;;;14.37;56.14
58245;BME280;44550;43.864;25.986;2023-05-12T20:29:29;101748.09;;;14.34;54.90
58245;BME280;44550;43.864;25.986;2023-05-12T20:33:33;101741.94;;;14.33;54.59
58245;BME280;44550;43.864;25.986;2023-05-12T20:37:36;101741.06;;;14.33;53.97
58245;BME280;44550;43.864;25.986;2023-05-12T20:42:04;101751.56;;;14.30;53.54
58245;BME280;44550;43.864;25.986;2023-05-12T20:46:34;101743.63;;;14.22;52.72
58245;BME280;44550;43.864;25.986;2023-05-12T20:50:54;101740.91;;;14.13;52.19
58245;BME280;44550;43.864;25.986;2023-05-12T20:54:57;101742.66;;;14.13;52.63
58245;BME280;44550;43.864;25.986;2023-05-12T20:59:01;101733.97;;;14.23;51.96
58245;BME280;44550;43.864;25.986;2023-05-12T21:03:05;101733.88;;;14.07;51.65
58245;BME280;44550;43.864;25.986;2023-05-12T21:07:11;101734.81;;;14.19;51.73
58245;BME280;44550;43.864;25.986;2023-05-12T21:11:13;101736.66;;;14.27;51.84
58245;BME280;44550;43.864;25.986;2023-05-12T21:15:19;101734.91;;;14.29;51.79